createdAt,value
2022-12-01T00:02:01.643Z,11.90
2022-12-01T00:07:01.513Z,9.60
2022-12-01T00:12:01.454Z,8.00
2022-12-01T00:17:01.439Z,12.20
2022-12-01T00:22:01.359Z,11.20
2022-12-01T00:27:01.283Z,9.50
2022-12-01T00:32:01.332Z,12.90
2022-12-01T00:37:01.180Z,9.60
2022-12-01T00:42:01.110Z,10.80
2022-12-01T00:47:01.019Z,8.00
2022-12-01T00:52:01.019Z,8.90
2022-12-01T00:57:00.933Z,7.40
2022-12-01T01:02:00.930Z,9.50
2022-12-01T01:07:00.815Z,9.50
2022-12-01T01:12:00.735Z,8.30
2022-12-01T01:17:00.771Z,9.10
2022-12-01T01:22:00.637Z,8.70
2022-12-01T01:27:00.554Z,8.90
2022-12-01T01:32:00.500Z,11.80
2022-12-01T01:37:00.441Z,6.90
2022-12-01T01:42:00.440Z,8.80
2022-12-01T01:47:00.306Z,8.70
2022-12-01T01:52:00.231Z,12.30
2022-12-01T01:57:00.173Z,8.70
2022-12-01T02:02:00.145Z,13.60
2022-12-01T02:07:00.088Z,9.40
2022-12-01T02:12:00.011Z,9.00
2022-12-01T02:16:59.999Z,8.10
2022-12-01T02:21:59.873Z,8.60
2022-12-01T02:26:59.800Z,9.70
2022-12-01T02:31:59.729Z,8.10
2022-12-01T02:36:59.684Z,9.30
2022-12-01T02:41:59.611Z,9.70
2022-12-01T02:46:59.559Z,11.00
2022-12-01T02:51:59.480Z,8.10
2022-12-01T02:56:59.427Z,7.20
2022-12-01T03:01:59.370Z,8.20
2022-12-01T03:06:59.307Z,8.60
2022-12-01T03:11:59.228Z,6.90
2022-12-01T03:16:59.229Z,8.40
2022-12-01T03:21:59.121Z,7.30
2022-12-01T03:26:59.136Z,10.00
2022-12-01T03:31:59.037Z,9.60
2022-12-01T03:36:59.041Z,8.20
2022-12-01T03:41:58.902Z,9.10
2022-12-01T03:46:58.874Z,9.10
2022-12-01T03:51:58.765Z,9.60
2022-12-01T03:56:58.711Z,8.60
2022-12-01T04:01:58.687Z,8.40
2022-12-01T04:06:58.539Z,9.70
2022-12-01T04:11:58.486Z,8.40
2022-12-01T04:16:58.405Z,12.60
2022-12-01T04:21:58.346Z,9.00
2022-12-01T04:26:58.292Z,9.60
2022-12-01T04:31:58.257Z,12.00
2022-12-01T04:36:58.203Z,11.10
2022-12-01T04:41:58.123Z,11.10
2022-12-01T04:46:58.173Z,12.80
2022-12-01T04:51:58.007Z,11.50
2022-12-01T04:56:57.917Z,11.20
2022-12-01T05:01:57.996Z,13.20
2022-12-01T05:06:57.850Z,15.80
2022-12-01T05:11:57.754Z,14.00
2022-12-01T05:16:57.705Z,15.20
2022-12-01T05:21:57.674Z,13.00
2022-12-01T05:26:57.561Z,14.00
2022-12-01T05:31:57.542Z,13.70
2022-12-01T05:36:57.454Z,14.20
2022-12-01T05:41:57.385Z,11.70
2022-12-01T05:46:57.323Z,14.50
2022-12-01T05:51:57.249Z,12.60
2022-12-01T05:56:57.187Z,12.50
2022-12-01T06:01:57.177Z,13.30
2022-12-01T06:06:57.101Z,13.10
2022-12-01T06:11:57.090Z,14.70
2022-12-01T06:16:57.006Z,15.50
2022-12-01T06:21:56.883Z,13.90
2022-12-01T06:26:56.823Z,13.20
2022-12-01T06:31:56.829Z,14.40
2022-12-01T06:36:56.706Z,12.70
2022-12-01T06:41:56.638Z,16.20
2022-12-01T06:46:56.575Z,13.80
2022-12-01T06:51:56.525Z,13.40
2022-12-01T06:56:56.472Z,12.40
2022-12-01T07:01:56.677Z,16.70
2022-12-01T07:06:56.379Z,13.70
2022-12-01T07:11:56.311Z,15.30
2022-12-01T07:16:56.289Z,13.10
2022-12-01T07:21:56.168Z,11.00
2022-12-01T07:26:56.077Z,14.10
2022-12-01T07:31:56.030Z,12.90
2022-12-01T07:36:55.960Z,18.00
2022-12-01T07:41:55.922Z,15.90
2022-12-01T07:46:55.844Z,18.00
2022-12-01T07:51:55.791Z,15.80
2022-12-01T07:56:55.729Z,17.60
2022-12-01T08:01:55.790Z,14.50
2022-12-01T08:06:55.600Z,18.50
2022-12-01T08:11:55.529Z,16.10
2022-12-01T08:16:55.460Z,14.30
2022-12-01T08:21:55.425Z,16.00
2022-12-01T08:26:55.359Z,15.80
2022-12-01T08:31:55.280Z,17.20
2022-12-01T08:36:55.219Z,16.60
2022-12-01T08:41:55.158Z,15.80
2022-12-01T08:46:55.185Z,18.50
2022-12-01T08:51:55.062Z,17.30
2022-12-01T08:56:55.015Z,13.80
2022-12-01T09:01:55.037Z,15.70
2022-12-01T09:06:54.837Z,17.70
2022-12-01T09:11:54.799Z,14.10
2022-12-01T09:16:54.720Z,17.20
2022-12-01T09:21:54.689Z,16.60
2022-12-01T09:26:54.619Z,17.00
2022-12-01T09:31:54.655Z,14.50
2022-12-01T09:36:54.498Z,13.70
2022-12-01T09:41:54.456Z,14.00
2022-12-01T09:46:54.462Z,15.40
2022-12-01T09:51:54.356Z,15.90
2022-12-01T09:56:54.281Z,14.30
2022-12-01T10:01:54.286Z,15.30
2022-12-01T10:06:54.162Z,16.40
2022-12-01T10:11:54.156Z,17.00
2022-12-01T10:16:54.087Z,13.80
2022-12-01T10:21:54.031Z,16.40
2022-12-01T10:26:53.999Z,16.20
2022-12-01T10:31:54.030Z,17.30
2022-12-01T10:36:53.849Z,16.80
2022-12-01T10:41:53.796Z,15.10
2022-12-01T10:46:53.749Z,14.50
2022-12-01T10:51:53.685Z,14.50
2022-12-01T10:56:53.595Z,13.70
2022-12-01T11:01:53.715Z,12.00
2022-12-01T11:06:53.466Z,15.30
2022-12-01T11:11:53.409Z,13.20
2022-12-01T11:16:53.395Z,15.60
2022-12-01T11:21:53.318Z,11.60
2022-12-01T11:26:53.248Z,13.90
2022-12-01T11:31:53.276Z,14.00
2022-12-01T11:36:53.121Z,15.00
2022-12-01T11:41:53.058Z,16.40
2022-12-01T11:47:01.626Z,13.80
2022-12-01T11:51:53.939Z,12.40
2022-12-01T11:57:17.379Z,13.00
2022-12-01T12:01:53.853Z,14.00
2022-12-01T12:06:52.742Z,13.50
2022-12-01T12:11:52.677Z,13.50
2022-12-01T12:16:52.625Z,12.70
2022-12-01T12:21:52.571Z,15.20
2022-12-01T12:26:52.487Z,13.30
2022-12-01T12:31:52.472Z,12.00
2022-12-01T12:36:52.379Z,10.10
2022-12-01T12:41:52.311Z,14.10
2022-12-01T12:46:52.282Z,12.50
2022-12-01T12:51:52.287Z,12.60
2022-12-01T12:56:52.145Z,14.10
2022-12-01T13:01:52.966Z,12.90
2022-12-01T13:06:52.004Z,15.40
2022-12-01T13:11:51.951Z,12.00
2022-12-01T13:16:51.843Z,15.10
2022-12-01T13:21:51.886Z,13.30
2022-12-01T13:26:51.746Z,14.40
2022-12-01T13:31:51.689Z,12.30
2022-12-01T13:36:51.621Z,12.20
2022-12-01T13:41:51.540Z,10.30
2022-12-01T13:46:51.540Z,14.00
2022-12-01T13:51:51.446Z,11.10
2022-12-01T13:56:51.399Z,13.10
2022-12-01T14:01:51.389Z,10.60
2022-12-01T14:06:51.220Z,11.80
2022-12-01T14:11:51.168Z,10.80
2022-12-01T14:16:51.101Z,12.70
2022-12-01T14:21:51.029Z,12.90
2022-12-01T14:26:50.976Z,10.40
2022-12-01T14:31:50.912Z,11.50
2022-12-01T14:36:50.838Z,12.80
2022-12-01T14:41:51.080Z,14.60
2022-12-01T14:46:50.736Z,18.10
2022-12-01T14:51:50.649Z,14.90
2022-12-01T14:56:50.590Z,11.90
2022-12-01T15:01:50.539Z,14.80
2022-12-01T15:06:50.470Z,15.00
2022-12-01T15:11:50.411Z,13.10
2022-12-01T15:16:50.374Z,13.10
2022-12-01T15:21:50.271Z,13.70
2022-12-01T15:26:50.202Z,14.70
2022-12-01T15:31:50.199Z,12.50
2022-12-01T15:36:50.094Z,14.50
2022-12-01T15:41:50.011Z,13.40
2022-12-01T15:46:49.974Z,12.90
2022-12-01T15:51:49.912Z,16.60
2022-12-01T15:56:49.840Z,15.20
2022-12-01T16:01:49.771Z,11.60
2022-12-01T16:06:49.721Z,11.60
2022-12-01T16:11:49.671Z,14.00
2022-12-01T16:16:49.713Z,13.00
2022-12-01T16:21:49.564Z,10.10
2022-12-01T16:26:49.480Z,12.30
2022-12-01T16:36:50.422Z,9.90
2022-12-01T16:41:49.467Z,10.50
2022-12-01T16:46:49.474Z,11.90
2022-12-01T16:51:56.035Z,12.20
2022-12-01T16:56:50.136Z,12.30
2022-12-01T17:01:49.252Z,13.70
2022-12-01T17:06:49.213Z,13.60
2022-12-01T17:11:49.436Z,12.10
2022-12-01T17:16:48.960Z,11.80
2022-12-01T17:21:48.887Z,12.00
2022-12-01T17:26:48.982Z,13.60
2022-12-01T17:31:48.876Z,13.30
2022-12-01T17:36:48.947Z,13.40
2022-12-01T17:41:48.762Z,13.40
2022-12-01T17:46:48.675Z,17.30
2022-12-01T17:51:48.802Z,11.70
2022-12-01T17:56:48.536Z,12.70
2022-12-01T18:01:48.471Z,13.10
2022-12-01T18:06:53.762Z,13.40
2022-12-01T18:11:49.284Z,15.10
2022-12-01T18:16:48.243Z,15.80
2022-12-01T18:21:48.153Z,11.60
2022-12-01T18:26:48.101Z,11.10
2022-12-01T18:31:48.045Z,13.70
2022-12-01T18:36:47.993Z,13.30
2022-12-01T18:41:47.926Z,13.30
2022-12-01T18:46:47.958Z,14.40
2022-12-01T18:51:47.847Z,16.00
2022-12-01T18:56:47.774Z,12.80
2022-12-01T19:01:47.763Z,16.40
2022-12-01T19:06:47.664Z,14.40
2022-12-01T19:11:47.591Z,18.70
2022-12-01T19:16:47.597Z,14.00
2022-12-01T19:21:47.498Z,17.20
2022-12-01T19:26:47.416Z,16.70
2022-12-01T19:31:48.235Z,14.50
2022-12-01T19:36:47.301Z,14.30
2022-12-01T19:41:47.258Z,17.80
2022-12-01T19:46:47.190Z,15.00
2022-12-01T19:51:47.135Z,13.90
2022-12-01T19:56:47.080Z,15.30
2022-12-01T20:01:47.119Z,20.40
2022-12-01T20:06:46.971Z,15.60
2022-12-01T20:11:46.911Z,16.30
2022-12-01T20:16:46.905Z,15.60
2022-12-01T20:21:46.780Z,15.50
2022-12-01T20:26:46.742Z,17.60
2022-12-01T20:31:46.760Z,17.00
2022-12-01T20:36:46.620Z,13.60
2022-12-01T20:41:46.589Z,20.10
2022-12-01T20:46:46.535Z,18.50
2022-12-01T20:51:46.485Z,18.80
2022-12-01T20:56:46.412Z,14.60
2022-12-01T21:01:46.353Z,16.10
2022-12-01T21:06:46.298Z,19.10
2022-12-01T21:11:46.242Z,16.20
2022-12-01T21:16:46.292Z,18.30
2022-12-01T21:21:46.153Z,15.90
2022-12-01T21:26:46.071Z,14.90
2022-12-01T21:31:46.040Z,16.30
2022-12-01T21:36:45.970Z,18.10
2022-12-01T21:41:45.923Z,15.60
2022-12-01T21:46:45.881Z,17.70
2022-12-01T21:51:45.791Z,16.80
2022-12-01T21:56:45.742Z,15.10
2022-12-01T22:01:45.769Z,18.80
2022-12-01T22:06:45.631Z,18.90
2022-12-01T22:11:45.602Z,20.20
2022-12-01T22:16:45.539Z,18.10
2022-12-01T22:21:45.503Z,17.90
2022-12-01T22:26:45.401Z,19.50
2022-12-01T22:31:45.365Z,16.20
2022-12-01T22:36:45.301Z,15.20
2022-12-01T22:41:45.222Z,13.40
2022-12-01T22:46:45.191Z,19.10
2022-12-01T22:51:45.113Z,14.00
2022-12-01T22:56:45.043Z,14.70
2022-12-01T23:01:45.077Z,14.80
2022-12-01T23:06:44.911Z,15.50
2022-12-01T23:11:44.860Z,16.00
2022-12-01T23:16:44.799Z,18.50
2022-12-01T23:21:44.794Z,16.40
2022-12-01T23:26:44.722Z,15.20
2022-12-01T23:31:44.697Z,16.00
2022-12-01T23:36:44.558Z,16.80
2022-12-01T23:41:44.548Z,15.30
2022-12-01T23:46:44.511Z,14.90
2022-12-01T23:51:44.407Z,16.00
2022-12-01T23:56:44.338Z,15.20
